Time;durP1;ratioP1;P1;durP2;ratioP2;P2;SDS_P1;SDS_P2;PMS_P1;PMS_P2;Temp;Humidity;BMP_temperature;BMP_pressure;BME280_temperature;BME280_humidity;BME280_pressure;Samples;Min_cycle;Max_cycle;Signal;HPM_P1;HPM_P2
2021/01/04 00:00:52;;;;;;;0.20;0.20;;;;;;;;;;5015635;28;20211;-67
2021/01/04 00:03:30;;;;;;;0.27;0.27;;;;;;;;;;5060559;28;20200;-67
2021/01/04 00:06:02;;;;;;;0.30;0.30;;;;;;;;;;5047107;28;20516;-67
2021/01/04 00:08:50;;;;;;;0.30;0.30;;;;;;;;;;5056653;28;20219;-67
2021/01/04 00:11:22;;;;;;;0.30;0.30;;;;;;;;;;5046663;28;20212;-67
2021/01/04 00:13:55;;;;;;;0.30;0.30;;;;;;;;;;5053475;28;20275;-67
2021/01/04 00:16:31;;;;;;;0.20;0.20;;;;;;;;;;5060333;28;20237;-67
2021/01/04 00:19:01;;;;;;;0.30;0.30;;;;;;;;;;5049761;28;20235;-67
2021/01/04 00:21:30;;;;;;;0.20;0.20;;;;;;;;;;5057566;28;20495;-67
2021/01/04 00:24:01;;;;;;;0.20;0.20;;;;;;;;;;5045120;28;20222;-67
2021/01/04 00:26:32;;;;;;;5.30;5.00;;;;;;;;;;5054070;28;20361;-67
2021/01/04 00:28:58;;;;;;;3.27;3.17;;;;;;;;;;5046743;28;20200;-68
2021/01/04 00:31:27;;;;;;;0.20;0.20;;;;;;;;;;5043472;28;20215;-67
2021/01/04 00:33:54;;;;;;;0.30;0.30;;;;;;;;;;5043484;28;20209;-67
2021/01/04 00:36:21;;;;;;;0.20;0.20;;;;;;;;;;5043618;28;20235;-67
2021/01/04 00:39:09;;;;;;;0.20;0.20;;;;;;;;;;5044366;28;20208;-68
2021/01/04 00:41:44;;;;;;;0.20;0.20;;;;;;;;;;5047192;28;20272;-67
2021/01/04 00:44:14;;;;;;;0.23;0.23;;;;;;;;;;5052167;28;20276;-67
2021/01/04 00:46:43;;;;;;;1.30;1.30;;;;;;;;;;5047144;28;20247;-67
2021/01/04 00:49:13;;;;;;;0.20;0.20;;;;;;;;;;5049992;28;20214;-67
2021/01/04 00:51:46;;;;;;;0.20;0.20;;;;;;;;;;5052792;28;20203;-68
2021/01/04 00:54:18;;;;;;;4.20;4.00;;;;;;;;;;5046536;28;20245;-68
2021/01/04 00:56:48;;;;;;;0.30;0.30;;;;;;;;;;5053376;28;20200;-68
2021/01/04 00:59:32;;;;;;;0.20;0.20;;;;;;;;;;5048590;28;20491;-68
2021/01/04 01:02:03;;;;;;;0.20;0.20;;;;;;;;;;5060351;28;20210;-68
2021/01/04 01:04:32;;;;;;;0.30;0.30;;;;;;;;;;5058899;28;20344;-67
2021/01/04 01:07:02;;;;;;;0.30;0.30;;;;;;;;;;5057443;28;20216;-68
2021/01/04 01:09:29;;;;;;;0.20;0.20;;;;;;;;;;5058627;28;20434;-68
2021/01/04 01:12:14;;;;;;;0.20;0.20;;;;;;;;;;5049070;28;20212;-67
2021/01/04 01:14:44;;;;;;;0.20;0.20;;;;;;;;;;5054227;28;20196;-68
2021/01/04 01:17:29;;;;;;;0.20;0.20;;;;;;;;;;5058645;28;20223;-68
2021/01/04 01:19:57;;;;;;;0.27;0.27;;;;;;;;;;5053474;28;20208;-68
2021/01/04 01:22:29;;;;;;;0.20;0.20;;;;;;;;;;5029237;28;20207;-69
2021/01/04 01:24:56;;;;;;;0.93;0.93;;;;;;;;;;5057811;28;20204;-67
2021/01/04 01:27:46;;;;;;;0.30;0.30;;;;;;;;;;5057525;28;20199;-68
2021/01/04 01:30:35;;;;;;;0.30;0.30;;;;;;;;;;5053700;28;20199;-68
2021/01/04 01:33:23;;;;;;;0.30;0.30;;;;;;;;;;5051012;28;20200;-68
2021/01/04 01:35:57;;;;;;;0.30;0.30;;;;;;;;;;5066331;28;20203;-68
2021/01/04 01:38:53;;;;;;;0.20;0.20;;;;;;;;;;5048424;28;20207;-67
2021/01/04 01:41:27;;;;;;;0.20;0.20;;;;;;;;;;5059134;28;20196;-69
2021/01/04 01:43:56;;;;;;;0.20;0.20;;;;;;;;;;5059339;28;20510;-68
2021/01/04 01:46:28;;;;;;;0.67;0.67;;;;;;;;;;5054566;28;20220;-68
2021/01/04 01:49:02;;;;;;;0.30;0.30;;;;;;;;;;5052893;28;20422;-68
2021/01/04 01:51:37;;;;;;;0.30;0.30;;;;;;;;;;5045776;28;20195;-68
2021/01/04 01:54:09;;;;;;;0.30;0.30;;;;;;;;;;5049528;28;20211;-67
2021/01/04 01:56:41;;;;;;;1.50;1.50;;;;;;;;;;5050294;28;20196;-68
2021/01/04 01:59:15;;;;;;;0.20;0.20;;;;;;;;;;5051750;28;20204;-68
2021/01/04 02:01:48;;;;;;;0.20;0.20;;;;;;;;;;5060980;28;20200;-68
2021/01/04 02:04:20;;;;;;;0.30;0.30;;;;;;;;;;5046558;28;20279;-68
2021/01/04 02:07:00;;;;;;;0.20;0.20;;;;;;;;;;5056875;28;20215;-67
2021/01/04 02:09:28;;;;;;;0.20;0.20;;;;;;;;;;5054072;28;20207;-68
2021/01/04 02:11:58;;;;;;;0.30;0.30;;;;;;;;;;5057555;28;20204;-68
2021/01/04 02:14:27;;;;;;;0.30;0.30;;;;;;;;;;5055899;28;20196;-68
2021/01/04 02:17:06;;;;;;;0.30;0.30;;;;;;;;;;5056007;28;20219;-68
2021/01/04 02:19:37;;;;;;;0.23;0.23;;;;;;;;;;5054927;28;20197;-68
2021/01/04 02:22:34;;;;;;;0.27;0.27;;;;;;;;;;5055227;28;20199;-68
2021/01/04 02:25:01;;;;;;;5.20;4.90;;;;;;;;;;4992739;28;20252;-68
2021/01/04 02:27:29;;;;;;;0.20;0.20;;;;;;;;;;5025589;28;20239;-68
2021/01/04 02:29:56;;;;;;;0.20;0.20;;;;;;;;;;5054489;28;20204;-68
2021/01/04 02:32:22;;;;;;;0.20;0.20;;;;;;;;;;5038102;28;20495;-69
2021/01/04 02:34:50;;;;;;;0.30;0.30;;;;;;;;;;5059903;28;20211;-68
2021/01/04 02:37:17;;;;;;;2.80;1.23;;;;;;;;;;5062662;28;20250;-67
2021/01/04 02:39:47;;;;;;;0.30;0.30;;;;;;;;;;5042219;28;20239;-69
2021/01/04 02:42:16;;;;;;;0.20;0.20;;;;;;;;;;5045999;28;20542;-67
2021/01/04 02:44:44;;;;;;;0.30;0.30;;;;;;;;;;5056137;28;20224;-68
2021/01/04 02:47:22;;;;;;;0.30;0.30;;;;;;;;;;5058703;28;20258;-68
2021/01/04 02:49:53;;;;;;;0.20;0.20;;;;;;;;;;5060277;28;20246;-68
2021/01/04 02:52:34;;;;;;;0.30;0.30;;;;;;;;;;5056626;28;20204;-68
2021/01/04 02:55:02;;;;;;;0.20;0.20;;;;;;;;;;5051614;28;20232;-68
2021/01/04 02:57:35;;;;;;;0.20;0.20;;;;;;;;;;5053696;28;20203;-67
2021/01/04 03:00:05;;;;;;;0.20;0.20;;;;;;;;;;5061510;28;20204;-67
2021/01/04 03:02:34;;;;;;;0.20;0.20;;;;;;;;;;5062984;28;20276;-67
2021/01/04 03:05:01;;;;;;;0.20;0.20;;;;;;;;;;5058354;28;20279;-67
2021/01/04 03:07:30;;;;;;;0.20;0.20;;;;;;;;;;5030017;28;20243;-68
2021/01/04 03:09:58;;;;;;;0.73;0.73;;;;;;;;;;5049766;28;20224;-68
2021/01/04 03:12:26;;;;;;;0.20;0.20;;;;;;;;;;5061974;28;20222;-68
2021/01/04 03:15:13;;;;;;;0.20;0.20;;;;;;;;;;5046841;28;20381;-67
2021/01/04 03:17:45;;;;;;;0.20;0.20;;;;;;;;;;5046216;28;20197;-68
2021/01/04 03:20:14;;;;;;;0.20;0.20;;;;;;;;;;5060019;28;20215;-67
2021/01/04 03:22:40;;;;;;;0.30;0.30;;;;;;;;;;5043650;28;20203;-68
2021/01/04 03:25:14;;;;;;;0.27;0.27;;;;;;;;;;5041384;28;20492;-68
2021/01/04 03:27:41;;;;;;;0.20;0.20;;;;;;;;;;5044960;28;20200;-67
2021/01/04 03:30:08;;;;;;;0.27;0.27;;;;;;;;;;5041312;28;20430;-67
2021/01/04 03:32:34;;;;;;;0.20;0.20;;;;;;;;;;5024416;28;20228;-67
2021/01/04 03:35:01;;;;;;;0.30;0.30;;;;;;;;;;5054647;28;20453;-68
2021/01/04 03:37:28;;;;;;;0.20;0.20;;;;;;;;;;5026784;28;20238;-68
2021/01/04 03:39:54;;;;;;;0.23;0.23;;;;;;;;;;5039826;28;20204;-68
2021/01/04 03:42:21;;;;;;;0.20;0.20;;;;;;;;;;5022383;28;20200;-68
2021/01/04 03:44:47;;;;;;;0.20;0.20;;;;;;;;;;5031687;28;20284;-68
2021/01/04 03:47:14;;;;;;;0.20;0.20;;;;;;;;;;5054626;28;20247;-68
2021/01/04 03:49:40;;;;;;;0.20;0.20;;;;;;;;;;5035696;28;20201;-68
2021/01/04 03:52:07;;;;;;;0.20;0.20;;;;;;;;;;5047319;28;20235;-68
2021/01/04 03:54:33;;;;;;;0.23;0.23;;;;;;;;;;5043601;28;20554;-68
2021/01/04 03:57:00;;;;;;;0.20;0.20;;;;;;;;;;5051826;28;20200;-68
2021/01/04 03:59:26;;;;;;;0.20;0.20;;;;;;;;;;5042595;28;20216;-68
2021/01/04 04:01:53;;;;;;;0.20;0.20;;;;;;;;;;5055960;28;20219;-68
2021/01/04 04:04:20;;;;;;;0.20;0.20;;;;;;;;;;5039981;28;20242;-67
2021/01/04 04:06:46;;;;;;;0.20;0.20;;;;;;;;;;5056056;28;20246;-68
2021/01/04 04:09:13;;;;;;;0.20;0.20;;;;;;;;;;5050896;28;20402;-68
2021/01/04 04:11:40;;;;;;;1.03;1.03;;;;;;;;;;5057821;28;20204;-68
2021/01/04 04:14:06;;;;;;;1.03;1.03;;;;;;;;;;5046433;28;20228;-68
2021/01/04 04:16:33;;;;;;;0.20;0.20;;;;;;;;;;5030208;28;20399;-68
2021/01/04 04:18:59;;;;;;;0.20;0.20;;;;;;;;;;5031099;28;20238;-68
2021/01/04 04:21:26;;;;;;;0.30;0.30;;;;;;;;;;5047395;28;20508;-68
2021/01/04 04:23:52;;;;;;;0.20;0.20;;;;;;;;;;5034807;28;20200;-68
2021/01/04 04:26:20;;;;;;;0.90;0.90;;;;;;;;;;5043085;28;20542;-69
2021/01/04 04:28:47;;;;;;;0.20;0.20;;;;;;;;;;5057741;28;20223;-68
2021/01/04 04:31:13;;;;;;;0.23;0.23;;;;;;;;;;5054989;28;20213;-68
2021/01/04 04:33:40;;;;;;;0.20;0.20;;;;;;;;;;5040280;28;20204;-68
2021/01/04 04:36:07;;;;;;;0.20;0.20;;;;;;;;;;5057914;28;20219;-67
2021/01/04 04:38:33;;;;;;;0.20;0.20;;;;;;;;;;5051516;28;20226;-66
2021/01/04 04:40:59;;;;;;;0.20;0.20;;;;;;;;;;5042312;28;20534;-67
2021/01/04 04:43:28;;;;;;;0.20;0.20;;;;;;;;;;5049771;28;20224;-67
2021/01/04 04:45:55;;;;;;;0.20;0.20;;;;;;;;;;5048090;28;20255;-67
2021/01/04 04:48:35;;;;;;;0.20;0.20;;;;;;;;;;5045446;28;20235;-67
2021/01/04 04:51:10;;;;;;;0.20;0.20;;;;;;;;;;5050081;28;20250;-67
2021/01/04 04:53:46;;;;;;;0.20;0.20;;;;;;;;;;5044974;28;20211;-67
2021/01/04 04:56:17;;;;;;;0.20;0.20;;;;;;;;;;5051194;28;20202;-67
2021/01/04 04:58:47;;;;;;;0.20;0.20;;;;;;;;;;5052269;28;20492;-68
2021/01/04 05:01:20;;;;;;;0.20;0.20;;;;;;;;;;5055309;28;20207;-68
2021/01/04 05:03:59;;;;;;;0.20;0.20;;;;;;;;;;5059959;28;20394;-67
2021/01/04 05:06:35;;;;;;;0.20;0.20;;;;;;;;;;5042866;28;20227;-69
2021/01/04 05:09:09;;;;;;;0.20;0.20;;;;;;;;;;5045442;28;20310;-67
2021/01/04 05:11:39;;;;;;;0.20;0.20;;;;;;;;;;5046760;28;20211;-67
2021/01/04 05:14:10;;;;;;;2.80;1.30;;;;;;;;;;5063743;28;20539;-67
2021/01/04 05:16:45;;;;;;;0.23;0.23;;;;;;;;;;5063539;28;20206;-67
2021/01/04 05:19:30;;;;;;;0.20;0.20;;;;;;;;;;5053163;28;20495;-67
2021/01/04 05:22:23;;;;;;;0.20;0.20;;;;;;;;;;5057688;28;20398;-67
2021/01/04 05:25:07;;;;;;;0.20;0.20;;;;;;;;;;5060375;28;20237;-67
2021/01/04 05:27:51;;;;;;;0.20;0.20;;;;;;;;;;5045777;28;20383;-67
2021/01/04 05:30:26;;;;;;;0.87;0.87;;;;;;;;;;5044946;28;20569;-67
2021/01/04 05:33:07;;;;;;;0.20;0.20;;;;;;;;;;5045133;28;20243;-67
2021/01/04 05:35:34;;;;;;;1.17;1.17;;;;;;;;;;5043925;28;20476;-67
2021/01/04 05:38:02;;;;;;;0.20;0.20;;;;;;;;;;5046781;28;20208;-67
2021/01/04 05:40:49;;;;;;;0.30;0.30;;;;;;;;;;5054629;28;20222;-68
2021/01/04 05:43:24;;;;;;;0.20;0.20;;;;;;;;;;5059272;28;20232;-68
2021/01/04 05:45:55;;;;;;;0.20;0.20;;;;;;;;;;5046518;28;20298;-66
2021/01/04 05:48:36;;;;;;;0.20;0.20;;;;;;;;;;5043683;28;20376;-67
2021/01/04 05:51:06;;;;;;;0.23;0.23;;;;;;;;;;5043473;28;20208;-67
2021/01/04 05:53:32;;;;;;;0.20;0.20;;;;;;;;;;5056055;28;20487;-68
2021/01/04 05:55:59;;;;;;;0.20;0.20;;;;;;;;;;5051245;28;20215;-67
2021/01/04 05:58:27;;;;;;;0.97;0.97;;;;;;;;;;5052068;28;20201;-67
2021/01/04 06:00:54;;;;;;;0.20;0.20;;;;;;;;;;5032302;28;20199;-67
2021/01/04 06:03:21;;;;;;;0.20;0.20;;;;;;;;;;5059649;28;20271;-67
2021/01/04 06:05:50;;;;;;;0.20;0.20;;;;;;;;;;5062405;28;20526;-67
2021/01/04 06:08:20;;;;;;;0.20;0.20;;;;;;;;;;5050596;28;20220;-67
2021/01/04 06:10:46;;;;;;;0.23;0.23;;;;;;;;;;5042652;28;20204;-68
2021/01/04 06:13:13;;;;;;;0.20;0.20;;;;;;;;;;5038670;28;20269;-68
2021/01/04 06:15:40;;;;;;;0.20;0.20;;;;;;;;;;5037464;28;20193;-68
2021/01/04 06:18:09;;;;;;;0.20;0.20;;;;;;;;;;5030115;28;20410;-68
2021/01/04 06:20:58;;;;;;;0.20;0.20;;;;;;;;;;5057536;28;20239;-68
2021/01/04 06:23:27;;;;;;;0.20;0.20;;;;;;;;;;5048418;28;20236;-68
2021/01/04 06:25:54;;;;;;;1.03;1.03;;;;;;;;;;5059387;28;20240;-68
2021/01/04 06:28:21;;;;;;;0.20;0.20;;;;;;;;;;5036154;28;20211;-67
2021/01/04 06:30:57;;;;;;;0.20;0.20;;;;;;;;;;5036108;28;20220;-67
2021/01/04 06:33:28;;;;;;;0.20;0.20;;;;;;;;;;5050583;28;20462;-68
2021/01/04 06:35:59;;;;;;;0.20;0.20;;;;;;;;;;5051476;28;20443;-68
2021/01/04 06:38:27;;;;;;;0.20;0.20;;;;;;;;;;5066626;28;20203;-68
2021/01/04 06:40:54;;;;;;;0.20;0.20;;;;;;;;;;5048571;28;20521;-67
2021/01/04 06:43:22;;;;;;;0.20;0.20;;;;;;;;;;5044603;28;20200;-68
2021/01/04 06:45:55;;;;;;;0.20;0.20;;;;;;;;;;5049504;28;20243;-67
2021/01/04 06:48:24;;;;;;;0.30;0.30;;;;;;;;;;5049807;28;20200;-67
2021/01/04 06:51:01;;;;;;;0.20;0.20;;;;;;;;;;5056261;28;20207;-67
2021/01/04 06:53:45;;;;;;;2.73;2.63;;;;;;;;;;5057188;28;20249;-67
2021/01/04 06:56:27;;;;;;;0.20;0.20;;;;;;;;;;5060106;28;20195;-67
2021/01/04 06:59:09;;;;;;;0.20;0.20;;;;;;;;;;5049807;28;20480;-67
2021/01/04 07:01:49;;;;;;;0.20;0.20;;;;;;;;;;5056347;28;20598;-68
2021/01/04 07:04:33;;;;;;;0.20;0.20;;;;;;;;;;5048698;28;20196;-68
2021/01/04 07:07:13;;;;;;;0.20;0.20;;;;;;;;;;5053537;28;20244;-69
2021/01/04 07:09:58;;;;;;;0.27;0.27;;;;;;;;;;5050577;28;20242;-68
2021/01/04 07:12:29;;;;;;;0.27;0.27;;;;;;;;;;5045776;28;20243;-67
2021/01/04 07:15:03;;;;;;;0.20;0.20;;;;;;;;;;5048531;28;20231;-69
2021/01/04 07:17:39;;;;;;;0.20;0.20;;;;;;;;;;5049316;28;20484;-69
2021/01/04 07:20:18;;;;;;;0.20;0.20;;;;;;;;;;5049787;28;20378;-69
2021/01/04 07:22:56;;;;;;;0.30;0.30;;;;;;;;;;5044095;28;20307;-67
2021/01/04 07:25:27;;;;;;;0.30;0.30;;;;;;;;;;5052025;28;20405;-69
2021/01/04 07:27:59;;;;;;;0.20;0.20;;;;;;;;;;5046222;28;20223;-68
2021/01/04 07:30:41;;;;;;;0.20;0.20;;;;;;;;;;5054197;28;20204;-68
2021/01/04 07:33:13;;;;;;;0.20;0.20;;;;;;;;;;5047208;28;20250;-67
2021/01/04 07:35:41;;;;;;;0.23;0.23;;;;;;;;;;5045278;28;20196;-70
2021/01/04 07:38:21;;;;;;;0.20;0.20;;;;;;;;;;5059519;28;20371;-69
2021/01/04 07:41:05;;;;;;;0.20;0.20;;;;;;;;;;5061743;28;20212;-70
2021/01/04 07:43:42;;;;;;;0.20;0.20;;;;;;;;;;5063398;28;20222;-69
2021/01/04 07:46:31;;;;;;;0.20;0.20;;;;;;;;;;5068315;28;20512;-69
2021/01/04 07:49:10;;;;;;;0.20;0.20;;;;;;;;;;5068631;28;20218;-69
2021/01/04 07:51:45;;;;;;;0.50;0.50;;;;;;;;;;5069186;28;20210;-68
2021/01/04 07:54:30;;;;;;;0.20;0.20;;;;;;;;;;5059955;28;20230;-68
2021/01/04 07:57:15;;;;;;;0.30;0.30;;;;;;;;;;5067480;28;20203;-69
2021/01/04 08:00:00;;;;;;;0.20;0.20;;;;;;;;;;5065256;28;20229;-71
2021/01/04 08:02:50;;;;;;;0.20;0.20;;;;;;;;;;5066054;28;20428;-71
2021/01/04 08:05:31;;;;;;;0.20;0.20;;;;;;;;;;5038100;28;20208;-70
2021/01/04 08:08:18;;;;;;;0.20;0.20;;;;;;;;;;5067065;28;20212;-69
2021/01/04 08:11:03;;;;;;;0.20;0.20;;;;;;;;;;5028382;28;20223;-70
2021/01/04 08:13:53;;;;;;;0.20;0.20;;;;;;;;;;5064092;28;20288;-70
2021/01/04 08:16:21;;;;;;;0.23;0.23;;;;;;;;;;5068702;28;20307;-68
2021/01/04 08:18:50;;;;;;;0.23;0.23;;;;;;;;;;5051653;28;20204;-69
2021/01/04 08:21:21;;;;;;;0.20;0.20;;;;;;;;;;5067853;28;20211;-69
2021/01/04 08:23:52;;;;;;;0.20;0.20;;;;;;;;;;5065845;28;20489;-68
2021/01/04 08:26:27;;;;;;;0.20;0.20;;;;;;;;;;5066174;28;20304;-68
2021/01/04 08:29:04;;;;;;;0.73;0.73;;;;;;;;;;5065497;28;20207;-69
2021/01/04 08:31:34;;;;;;;0.20;0.20;;;;;;;;;;5065216;28;20498;-68
2021/01/04 08:34:04;;;;;;;0.23;0.23;;;;;;;;;;5068814;28;20203;-69
2021/01/04 08:36:31;;;;;;;0.30;0.30;;;;;;;;;;5072463;28;20227;-69
2021/01/04 08:39:06;;;;;;;0.20;0.20;;;;;;;;;;5066203;28;20549;-69
2021/01/04 08:41:34;;;;;;;0.27;0.27;;;;;;;;;;5065836;28;20199;-69
2021/01/04 08:44:10;;;;;;;0.20;0.20;;;;;;;;;;5051143;28;20209;-69
2021/01/04 08:46:38;;;;;;;0.30;0.30;;;;;;;;;;5065763;28;20225;-70
2021/01/04 08:49:17;;;;;;;0.23;0.23;;;;;;;;;;5054618;28;20222;-69
2021/01/04 08:51:44;;;;;;;0.30;0.30;;;;;;;;;;5068820;28;20495;-70
2021/01/04 08:54:24;;;;;;;0.20;0.20;;;;;;;;;;5066148;28;20503;-70
2021/01/04 08:56:52;;;;;;;0.30;0.30;;;;;;;;;;5065139;28;20211;-70
2021/01/04 08:59:20;;;;;;;1.47;1.37;;;;;;;;;;5053424;28;20382;-70
2021/01/04 09:01:48;;;;;;;3.10;2.90;;;;;;;;;;5068059;28;20208;-69
2021/01/04 09:04:24;;;;;;;0.27;0.27;;;;;;;;;;5062887;28;20204;-69
2021/01/04 09:07:02;;;;;;;3.20;3.00;;;;;;;;;;5067917;28;20241;-69
2021/01/04 09:09:32;;;;;;;0.20;0.20;;;;;;;;;;5066856;28;20307;-65
2021/01/04 09:12:06;;;;;;;0.20;0.20;;;;;;;;;;5066074;28;20384;-69
2021/01/04 09:14:37;;;;;;;0.30;0.30;;;;;;;;;;5065811;28;20237;-69
2021/01/04 09:17:12;;;;;;;0.23;0.23;;;;;;;;;;5070048;28;20207;-68
2021/01/04 09:19:40;;;;;;;0.30;0.30;;;;;;;;;;5071248;28;20198;-69
2021/01/04 09:22:08;;;;;;;0.20;0.20;;;;;;;;;;5049754;28;20514;-69
2021/01/04 09:24:37;;;;;;;0.20;0.20;;;;;;;;;;5070810;28;20230;-69
2021/01/04 09:27:06;;;;;;;0.23;0.23;;;;;;;;;;5051439;28;20224;-69
2021/01/04 09:29:36;;;;;;;0.30;0.30;;;;;;;;;;5069972;28;20270;-69
2021/01/04 09:32:06;;;;;;;0.20;0.20;;;;;;;;;;5070438;28;20207;-69
2021/01/04 09:34:33;;;;;;;2.27;2.20;;;;;;;;;;5071625;28;20270;-69
2021/01/04 09:37:03;;;;;;;0.27;0.27;;;;;;;;;;5051672;28;20298;-73
2021/01/04 09:39:31;;;;;;;0.20;0.20;;;;;;;;;;5071782;28;20212;-71
2021/01/04 09:41:58;;;;;;;0.30;0.30;;;;;;;;;;5072860;28;20211;-72
2021/01/04 09:44:25;;;;;;;0.20;0.20;;;;;;;;;;5053933;28;20419;-69
2021/01/04 09:46:54;;;;;;;0.30;0.30;;;;;;;;;;5068879;28;20266;-69
2021/01/04 09:49:24;;;;;;;0.20;0.20;;;;;;;;;;5057688;28;20425;-70
2021/01/04 09:51:52;;;;;;;0.20;0.20;;;;;;;;;;5069678;28;20225;-70
2021/01/04 09:54:22;;;;;;;0.30;0.30;;;;;;;;;;5068581;28;20238;-69
2021/01/04 09:56:49;;;;;;;0.30;0.30;;;;;;;;;;5071650;28;20201;-70
2021/01/04 09:59:20;;;;;;;3.17;3.00;;;;;;;;;;5073444;28;20235;-70
2021/01/04 10:01:48;;;;;;;0.87;0.87;;;;;;;;;;5073387;28;20203;-70
2021/01/04 10:04:23;;;;;;;0.30;0.30;;;;;;;;;;5069226;28;20327;-70
2021/01/04 10:06:50;;;;;;;0.20;0.20;;;;;;;;;;5066312;28;20549;-69
2021/01/04 10:09:18;;;;;;;0.20;0.20;;;;;;;;;;5053883;28;20211;-70
2021/01/04 10:11:46;;;;;;;0.20;0.20;;;;;;;;;;5068321;28;20207;-70
2021/01/04 10:14:14;;;;;;;0.20;0.20;;;;;;;;;;5050224;28;20199;-71
2021/01/04 10:16:42;;;;;;;0.43;0.43;;;;;;;;;;5062221;28;20195;-70
2021/01/04 10:19:09;;;;;;;0.20;0.20;;;;;;;;;;5071864;28;20199;-71
2021/01/04 10:21:42;;;;;;;0.20;0.20;;;;;;;;;;5056538;28;20199;-69
2021/01/04 10:24:13;;;;;;;0.20;0.20;;;;;;;;;;5070664;28;20477;-68
2021/01/04 10:26:40;;;;;;;0.30;0.30;;;;;;;;;;5064715;28;20235;-70
2021/01/04 10:29:07;;;;;;;0.30;0.30;;;;;;;;;;5061334;28;20211;-73
2021/01/04 10:31:35;;;;;;;0.30;0.30;;;;;;;;;;5053227;28;20211;-70
2021/01/04 10:34:06;;;;;;;1.63;1.63;;;;;;;;;;5059428;28;20275;-70
2021/01/04 10:36:33;;;;;;;0.20;0.20;;;;;;;;;;5058454;28;20205;-71
2021/01/04 10:39:05;;;;;;;0.20;0.20;;;;;;;;;;5059754;28;20207;-70
2021/01/04 10:41:33;;;;;;;0.23;0.23;;;;;;;;;;5063673;28;20208;-70
2021/01/04 10:44:04;;;;;;;0.20;0.20;;;;;;;;;;5063397;28;20498;-70
2021/01/04 10:46:34;;;;;;;0.20;0.20;;;;;;;;;;5066528;28;20233;-71
2021/01/04 10:49:02;;;;;;;0.30;0.30;;;;;;;;;;5064998;28;20204;-69
2021/01/04 10:51:29;;;;;;;0.20;0.20;;;;;;;;;;5067838;28;20209;-68
2021/01/04 10:53:56;;;;;;;0.23;0.23;;;;;;;;;;5073821;28;20231;-69
2021/01/04 10:56:37;;;;;;;0.20;0.20;;;;;;;;;;5065308;28;20212;-70
2021/01/04 10:59:09;;;;;;;0.20;0.20;;;;;;;;;;5067567;28;20574;-69
2021/01/04 11:01:38;;;;;;;0.20;0.20;;;;;;;;;;5067904;28;20203;-69
2021/01/04 11:04:06;;;;;;;0.27;0.27;;;;;;;;;;5065735;28;20250;-69
2021/01/04 11:06:34;;;;;;;0.30;0.30;;;;;;;;;;5069242;28;20255;-69
2021/01/04 11:09:10;;;;;;;0.20;0.20;;;;;;;;;;5053287;28;20208;-69
2021/01/04 11:11:40;;;;;;;0.20;0.20;;;;;;;;;;5067080;28;20301;-68
2021/01/04 11:14:07;;;;;;;0.20;0.20;;;;;;;;;;5071080;28;20349;-69
2021/01/04 11:16:40;;;;;;;0.63;0.63;;;;;;;;;;5051042;28;20262;-69
2021/01/04 11:19:07;;;;;;;0.27;0.27;;;;;;;;;;5068322;28;20280;-69
2021/01/04 11:21:35;;;;;;;0.30;0.30;;;;;;;;;;5055567;28;20207;-69
2021/01/04 11:24:02;;;;;;;0.20;0.20;;;;;;;;;;5051681;28;20209;-69
2021/01/04 11:26:29;;;;;;;0.20;0.20;;;;;;;;;;5052476;28;20220;-69
2021/01/04 11:28:57;;;;;;;0.23;0.23;;;;;;;;;;5052289;28;20498;-68
2021/01/04 11:31:23;;;;;;;0.20;0.20;;;;;;;;;;5069603;28;20207;-68
2021/01/04 11:33:50;;;;;;;0.27;0.27;;;;;;;;;;5071414;28;20310;-69
2021/01/04 11:36:17;;;;;;;0.30;0.30;;;;;;;;;;5051013;28;20196;-69
2021/01/04 11:38:43;;;;;;;0.30;0.30;;;;;;;;;;5051608;28;20487;-68
2021/01/04 11:41:12;;;;;;;0.20;0.20;;;;;;;;;;5050670;28;20211;-68
2021/01/04 11:43:42;;;;;;;0.20;0.20;;;;;;;;;;5063864;28;20209;-70
2021/01/04 11:46:09;;;;;;;0.20;0.20;;;;;;;;;;5070291;28;20272;-68
2021/01/04 11:48:35;;;;;;;0.27;0.27;;;;;;;;;;5069018;28;20208;-70
2021/01/04 11:51:02;;;;;;;0.20;0.20;;;;;;;;;;5066339;28;20239;-69
2021/01/04 11:53:29;;;;;;;0.23;0.23;;;;;;;;;;5052095;28;20229;-70
2021/01/04 11:55:56;;;;;;;0.20;0.20;;;;;;;;;;5052670;28;20207;-70
2021/01/04 11:58:22;;;;;;;1.70;1.70;;;;;;;;;;5050361;28;20201;-70
2021/01/04 12:00:49;;;;;;;0.20;0.20;;;;;;;;;;5067420;28;20219;-70
2021/01/04 12:03:16;;;;;;;0.30;0.30;;;;;;;;;;5052420;28;20198;-70
2021/01/04 12:05:43;;;;;;;0.30;0.30;;;;;;;;;;5066517;28;20272;-70
2021/01/04 12:08:09;;;;;;;0.20;0.20;;;;;;;;;;5066838;28;20215;-71
2021/01/04 12:10:36;;;;;;;0.23;0.23;;;;;;;;;;5065153;28;20215;-69
2021/01/04 12:13:03;;;;;;;0.20;0.20;;;;;;;;;;5047935;28;20200;-70
2021/01/04 12:15:30;;;;;;;0.83;0.83;;;;;;;;;;5064783;28;20203;-70
2021/01/04 12:17:56;;;;;;;0.20;0.20;;;;;;;;;;5053382;28;20200;-70
2021/01/04 12:20:24;;;;;;;0.30;0.30;;;;;;;;;;5049963;28;20207;-70
2021/01/04 12:22:50;;;;;;;0.20;0.20;;;;;;;;;;5068250;28;20215;-71
2021/01/04 12:25:17;;;;;;;5.53;5.33;;;;;;;;;;5068034;28;20203;-70
2021/01/04 12:27:44;;;;;;;0.20;0.20;;;;;;;;;;5047201;28;20224;-70
2021/01/04 12:30:11;;;;;;;0.20;0.20;;;;;;;;;;5052168;28;20207;-70
2021/01/04 12:32:41;;;;;;;0.20;0.20;;;;;;;;;;5070064;28;20216;-70
2021/01/04 12:35:08;;;;;;;0.20;0.20;;;;;;;;;;5064619;28;20200;-70
2021/01/04 12:37:35;;;;;;;0.20;0.20;;;;;;;;;;5066891;28;20220;-70
2021/01/04 12:40:03;;;;;;;0.60;0.60;;;;;;;;;;5050151;28;20199;-71
2021/01/04 12:42:29;;;;;;;0.27;0.27;;;;;;;;;;5054849;28;20207;-71
2021/01/04 12:44:56;;;;;;;0.20;0.20;;;;;;;;;;5051384;28;20227;-70
2021/01/04 12:47:22;;;;;;;0.30;0.30;;;;;;;;;;5050529;28;20235;-71
2021/01/04 12:49:49;;;;;;;1.07;1.07;;;;;;;;;;5049191;28;20208;-71
2021/01/04 12:52:17;;;;;;;0.20;0.20;;;;;;;;;;5046860;28;20367;-70
2021/01/04 12:54:45;;;;;;;0.43;0.43;;;;;;;;;;5064243;28;20203;-70
2021/01/04 12:57:11;;;;;;;9.23;8.33;;;;;;;;;;5053476;28;20199;-71
2021/01/04 12:59:40;;;;;;;0.20;0.20;;;;;;;;;;5065210;28;20206;-70
2021/01/04 13:02:07;;;;;;;0.20;0.20;;;;;;;;;;5070208;28;20237;-70
2021/01/04 13:04:35;;;;;;;0.20;0.20;;;;;;;;;;5066761;28;20204;-70
2021/01/04 13:07:02;;;;;;;0.20;0.20;;;;;;;;;;5051056;28;20227;-70
2021/01/04 13:09:28;;;;;;;0.20;0.20;;;;;;;;;;5048693;28;20211;-71
2021/01/04 13:11:56;;;;;;;0.20;0.20;;;;;;;;;;5054207;28;20242;-71
2021/01/04 13:14:23;;;;;;;0.30;0.30;;;;;;;;;;5069991;28;20511;-70
2021/01/04 13:16:50;;;;;;;0.20;0.20;;;;;;;;;;5056588;28;20229;-71
2021/01/04 13:19:16;;;;;;;0.20;0.20;;;;;;;;;;5072016;28;20510;-72
2021/01/04 13:21:43;;;;;;;0.20;0.20;;;;;;;;;;5072358;28;20214;-71
2021/01/04 13:24:11;;;;;;;0.30;0.30;;;;;;;;;;5053570;28;20200;-70
2021/01/04 13:26:38;;;;;;;0.20;0.20;;;;;;;;;;5074805;28;20239;-71
2021/01/04 13:29:06;;;;;;;4.83;3.80;;;;;;;;;;5051248;28;20257;-71
2021/01/04 13:31:32;;;;;;;5.97;5.70;;;;;;;;;;5073592;28;20230;-71
2021/01/04 13:33:59;;;;;;;5.50;5.03;;;;;;;;;;5053340;28;20199;-71
2021/01/04 13:36:25;;;;;;;0.30;0.30;;;;;;;;;;5070162;28;20407;-71
2021/01/04 13:38:52;;;;;;;0.27;0.27;;;;;;;;;;5071120;28;20521;-71
2021/01/04 13:41:18;;;;;;;0.30;0.30;;;;;;;;;;5050392;28;20486;-70
2021/01/04 13:43:45;;;;;;;0.20;0.20;;;;;;;;;;5070435;28;20231;-71
2021/01/04 13:46:19;;;;;;;1.07;1.00;;;;;;;;;;5056288;28;20541;-69
2021/01/04 13:48:46;;;;;;;0.20;0.20;;;;;;;;;;5064445;28;20288;-71
2021/01/04 13:51:12;;;;;;;0.20;0.20;;;;;;;;;;5053848;28;20236;-70
2021/01/04 13:53:39;;;;;;;0.20;0.20;;;;;;;;;;5049056;28;20280;-71
2021/01/04 13:56:07;;;;;;;0.20;0.20;;;;;;;;;;5057531;28;20203;-70
2021/01/04 13:58:33;;;;;;;0.20;0.20;;;;;;;;;;5053555;28;20574;-71
2021/01/04 14:01:00;;;;;;;0.30;0.30;;;;;;;;;;5053557;28;20201;-69
2021/01/04 14:03:27;;;;;;;0.23;0.23;;;;;;;;;;5070291;28;20245;-71
2021/01/04 14:05:55;;;;;;;0.20;0.20;;;;;;;;;;5065375;28;20235;-71
2021/01/04 14:08:21;;;;;;;15.73;5.93;;;;;;;;;;5069990;28;20286;-71
2021/01/04 14:10:48;;;;;;;0.20;0.20;;;;;;;;;;5053435;28;20208;-70
2021/01/04 14:13:14;;;;;;;0.30;0.30;;;;;;;;;;5070511;28;20600;-71
2021/01/04 14:15:41;;;;;;;0.20;0.20;;;;;;;;;;5072038;28;20274;-70
2021/01/04 14:18:07;;;;;;;0.30;0.30;;;;;;;;;;5066625;28;20212;-69
2021/01/04 14:20:35;;;;;;;0.20;0.20;;;;;;;;;;5054540;28;20274;-70
2021/01/04 14:23:02;;;;;;;0.20;0.20;;;;;;;;;;5050933;28;20205;-69
2021/01/04 14:25:28;;;;;;;0.20;0.20;;;;;;;;;;5065006;28;20541;-69
2021/01/04 14:27:55;;;;;;;0.47;0.47;;;;;;;;;;5047906;28;20219;-70
2021/01/04 14:30:21;;;;;;;0.40;0.40;;;;;;;;;;5071013;28;20208;-69
2021/01/04 14:32:48;;;;;;;0.30;0.30;;;;;;;;;;5067332;28;20206;-70
2021/01/04 14:35:15;;;;;;;0.20;0.20;;;;;;;;;;5056740;28;20264;-69
2021/01/04 14:37:43;;;;;;;0.20;0.20;;;;;;;;;;5071147;28;20200;-69
2021/01/04 14:40:10;;;;;;;4.67;4.37;;;;;;;;;;5051740;28;20208;-69
2021/01/04 14:42:36;;;;;;;0.20;0.20;;;;;;;;;;5064724;28;20495;-69
2021/01/04 14:45:03;;;;;;;0.33;0.33;;;;;;;;;;5051896;28;20273;-69
2021/01/04 14:47:32;;;;;;;0.20;0.20;;;;;;;;;;5047717;28;20219;-70
2021/01/04 14:49:59;;;;;;;0.20;0.20;;;;;;;;;;5052072;28;20216;-69
2021/01/04 14:52:26;;;;;;;0.20;0.20;;;;;;;;;;5057157;28;20200;-69
2021/01/04 14:54:54;;;;;;;0.30;0.30;;;;;;;;;;5052954;28;20204;-69
2021/01/04 14:57:21;;;;;;;1.60;1.60;;;;;;;;;;5066464;28;20231;-68
2021/01/04 14:59:48;;;;;;;0.20;0.20;;;;;;;;;;5068022;28;20201;-69
2021/01/04 15:02:15;;;;;;;1.60;1.40;;;;;;;;;;5066692;28;20208;-69
2021/01/04 15:04:41;;;;;;;0.23;0.23;;;;;;;;;;5065806;28;20221;-69